• Join FlightAware (Why Join?)
  • Login
  • US Flag 
01:13PM EDT


 

Airport Tracker/Info


-or-


 

Live Flight TrackerFlight Track Log ✈ THY2470 ✈ 25-Apr-2013 ✈ LTBA / IST - LTAF / ADA

Flight Track Log - Related Links

Times and Time Zones

All times are in EDT time to prevent confusion due to time zone crossing. See the THY2470 flight status page for this flight to view local times or setup timezone preferences in your user account.

Time Position Orientation Groundspeed Altitude Reporting Facility
EDT Latitude Longitude Course Direction KTS MPH feet Rate Location/Type
02:03PM 40.5294 29.6138 126° Southeast  Level Estimated
02:04PM 40.4650 29.7262 127° Southeast  Level Estimated
02:05PM 40.4005 29.8384 127° Southeast  Level Estimated
02:06PM 40.3359 29.9503 127° Southeast  Level Estimated
02:07PM 40.2713 30.0620 127° Southeast  Level Estimated
02:08PM 40.2065 30.1736 127° Southeast  Level Estimated
02:09PM 40.1415 30.2849 127° Southeast  Level Estimated
02:10PM 40.0765 30.3960 127° Southeast  Level Estimated
02:11PM 40.0114 30.5068 127° Southeast  Level Estimated
02:12PM 39.9462 30.6175 128° Southeast  Level Estimated
02:13PM 39.8808 30.7280 128° Southeast  Level Estimated
02:14PM 39.8154 30.8382 128° Southeast  Level Estimated
02:15PM 39.7499 30.9483 128° Southeast  Level Estimated
02:16PM 39.6842 31.0581 128° Southeast  Level Estimated
02:17PM 39.6185 31.1677 128° Southeast  Level Estimated
02:18PM 39.5526 31.2771 128° Southeast  Level Estimated
02:19PM 39.4867 31.3863 128° Southeast  Level Estimated
02:20PM 39.4206 31.4953 128° Southeast  Level Estimated
02:21PM 39.3545 31.6041 128° Southeast  Level Estimated
02:22PM 39.2882 31.7127 128° Southeast  Level Estimated
02:23PM 39.2218 31.8211 128° Southeast  Level Estimated
02:24PM 39.1554 31.9293 128° Southeast  Level Estimated
02:25PM 39.0888 32.0372 128° Southeast  Level Estimated
02:26PM 39.0222 32.1450 129° Southeast  Level Estimated
02:27PM 38.9554 32.2525 129° Southeast  Level Estimated
02:28PM 38.8885 32.3599 129° Southeast  Level Estimated
02:29PM 38.8216 32.4671 129° Southeast  Level Estimated
02:30PM 38.7546 32.5740 129° Southeast  Level Estimated
02:31PM 38.6874 32.6808 129° Southeast  Level Estimated
02:32PM 38.6202 32.7873 129° Southeast  Level Estimated
02:33PM 38.5528 32.8937 129° Southeast  Level Estimated
02:34PM 38.4854 32.9999 129° Southeast  Level Estimated
02:35PM 38.4179 33.1058 129° Southeast  Level Estimated
02:36PM 38.3502 33.2116 129° Southeast  Level Estimated
02:37PM 38.2825 33.3172 129° Southeast  Level Estimated
02:38PM 38.2147 33.4225 129° Southeast  Level Estimated
02:39PM 38.1468 33.5277 129° Southeast  Level Estimated
02:40PM 38.0788 33.6327 129° Southeast  Level Estimated
02:41PM 38.0107 33.7374 129° Southeast  Level Estimated
02:42PM 37.9425 33.8420 130° Southeast  Level Estimated
02:43PM 37.8742 33.9464 130° Southeast  Level Estimated
02:44PM 37.8058 34.0506 130° Southeast  Level Estimated
02:45PM 37.7374 34.1546 130° Southeast  Level Estimated
02:46PM 37.6688 34.2584 130° Southeast  Level Estimated
02:47PM 37.6001 34.3620 130° Southeast  Level Estimated
02:48PM 37.5314 34.4655 130° Southeast  Level Estimated
02:49PM 37.4626 34.5687 130° Southeast  Level Estimated
02:50PM 37.3937 34.6718 130° Southeast  Level Estimated
02:51PM 37.3246 34.7746 130° Southeast  Level Estimated
02:52PM 37.2555 34.8773 130° Southeast  Level Estimated
02:53PM 37.1864 34.9798 130° Southeast  Level Estimated
02:54PM 37.1171 35.0821 130° Southeast  Level Estimated
02:55PM 37.0477 35.1842 130° Southeast  Level Estimated
02:56PM 36.9822 35.2804 130° Southeast  Level Estimated
02:57PM 36.9822 35.2804 202° Southwest  Level Estimated
02:58PM 36.9822 35.2804 202° Southwest  Level Estimated
02:59PM 36.9822 35.2804 202° Southwest  Level Estimated
03:00PM 36.9822 35.2804 202° Southwest  Level Estimated
03:01PM 36.9822 35.2804 202° Southwest  Level Estimated
03:02PM 36.9822 35.2804 202° Southwest  Level Estimated
03:03PM 36.9822 35.2804 202° Southwest  Level Estimated
03:04PM 36.9822 35.2804 202° Southwest  Level Estimated
03:05PM 36.9822 35.2804 202° Southwest  Level Estimated
03:06PM 36.9822 35.2804 202° Southwest  Level Estimated
03:07PM 36.9822 35.2804 202° Southwest  Level Estimated
03:08PM 36.9822 35.2804 202° Southwest  Level Estimated
03:09PM 36.9822 35.2804 202° Southwest  Level Estimated
03:10PM 36.9822 35.2804 202° Southwest  Level Estimated
03:11PM 36.9822 35.2804 202° Southwest  Level Estimated